Time;durP1;ratioP1;P1;durP2;ratioP2;P2;SDS_P1;SDS_P2;PMS_P1;PMS_P2;Temp;Humidity;BMP_temperature;BMP_pressure;BME280_temperature;BME280_humidity;BME280_pressure;Samples;Min_cycle;Max_cycle;Signal;HPM_P1;HPM_P2
2023/03/08 00:00:03;;;;;;;16.90;9.47;;;;;;;-141.59;100.00;61776.25;5099650;28;20201;-85
2023/03/08 00:02:38;;;;;;;17.83;10.10;;;;;;;-141.59;100.00;61776.25;5095761;28;20208;-86
2023/03/08 00:05:09;;;;;;;16.67;10.33;;;;;;;-141.59;100.00;61776.25;5099024;27;20255;-89
2023/03/08 00:07:36;;;;;;;16.03;9.53;;;;;;;-141.59;100.00;61776.25;5097237;28;20206;-87
2023/03/08 00:10:04;;;;;;;15.93;9.03;;;;;;;-141.59;100.00;61776.25;5103687;28;20196;-86
2023/03/08 00:12:31;;;;;;;14.57;9.60;;;;;;;-141.59;100.00;61776.25;5108620;28;20793;-85
2023/03/08 00:14:58;;;;;;;18.37;10.20;;;;;;;-141.59;100.00;61776.25;5108929;28;20227;-86
2023/03/08 00:17:26;;;;;;;19.77;10.50;;;;;;;-141.59;100.00;61776.25;5105689;28;20239;-86
2023/03/08 00:19:53;;;;;;;17.60;10.50;;;;;;;-141.59;100.00;61776.25;5106453;28;20254;-86
2023/03/08 00:22:21;;;;;;;18.13;10.73;;;;;;;-141.59;100.00;61776.25;5109053;28;20216;-86
2023/03/08 00:24:49;;;;;;;18.00;10.63;;;;;;;-141.59;100.00;61776.25;5097884;28;20203;-89
2023/03/08 00:27:16;;;;;;;18.37;10.60;;;;;;;-141.59;100.00;61776.25;5101971;28;20208;-86
2023/03/08 00:29:43;;;;;;;15.13;9.53;;;;;;;-141.59;100.00;61776.25;5094273;28;20283;-86
2023/03/08 00:32:10;;;;;;;17.70;10.07;;;;;;;-141.59;100.00;61776.25;5100052;28;20261;-86
2023/03/08 00:34:37;;;;;;;16.23;9.43;;;;;;;-141.59;100.00;61776.25;5098304;28;20197;-86
2023/03/08 00:37:04;;;;;;;16.00;10.13;;;;;;;-141.59;100.00;61776.25;5106497;28;20357;-86
2023/03/08 00:39:33;;;;;;;14.03;9.23;;;;;;;-141.59;100.00;61776.25;5101504;28;20200;-86
2023/03/08 00:42:00;;;;;;;18.33;10.17;;;;;;;-141.59;100.00;61776.25;5100790;28;20254;-86
2023/03/08 00:44:27;;;;;;;20.90;11.53;;;;;;;-141.59;100.00;61776.25;5097197;28;20206;-85
2023/03/08 00:46:54;;;;;;;15.33;9.70;;;;;;;-141.59;100.00;61776.25;5101300;28;20235;-85
2023/03/08 00:49:22;;;;;;;16.43;10.40;;;;;;;-141.59;100.00;61776.25;5093757;28;20304;-88
2023/03/08 00:51:49;;;;;;;18.23;10.77;;;;;;;-141.59;100.00;61776.25;5104686;28;20200;-86
2023/03/08 00:54:16;;;;;;;19.57;11.60;;;;;;;-141.59;100.00;61776.25;5100026;27;20196;-86
2023/03/08 00:56:45;;;;;;;17.67;9.97;;;;;;;-141.59;100.00;61776.25;5101965;28;20212;-86
2023/03/08 00:59:13;;;;;;;16.10;9.67;;;;;;;-141.59;100.00;61776.25;5107486;28;20211;-86
2023/03/08 01:01:40;;;;;;;15.07;9.50;;;;;;;-141.59;100.00;61776.25;5105425;28;20216;-88
2023/03/08 01:04:07;;;;;;;18.40;10.07;;;;;;;-141.59;100.00;61776.25;5096828;27;20207;-90
2023/03/08 01:06:35;;;;;;;13.47;9.53;;;;;;;-141.59;100.00;61776.25;5108245;28;20193;-88
2023/03/08 01:09:03;;;;;;;17.73;9.50;;;;;;;-141.59;100.00;61776.25;5110741;28;20200;-87
2023/03/08 01:11:32;;;;;;;15.33;9.70;;;;;;;-141.59;100.00;61776.25;5103222;28;20236;-86
2023/03/08 01:14:00;;;;;;;14.40;9.17;;;;;;;-141.59;100.00;61776.25;5104689;28;20312;-86
2023/03/08 01:16:29;;;;;;;16.20;10.83;;;;;;;-141.59;100.00;61776.25;5115817;27;20219;-87
2023/03/08 01:18:59;;;;;;;16.17;10.93;;;;;;;-141.59;100.00;61776.25;5096935;28;20230;-87
2023/03/08 01:21:27;;;;;;;15.27;10.00;;;;;;;-141.59;100.00;61776.25;5109511;28;20204;-87
2023/03/08 01:23:55;;;;;;;13.37;9.33;;;;;;;-141.59;100.00;61776.25;5108101;28;20193;-88
2023/03/08 01:26:23;;;;;;;15.13;10.03;;;;;;;-141.59;100.00;61776.25;5118530;27;20268;-87
2023/03/08 01:28:51;;;;;;;15.30;9.97;;;;;;;-141.59;100.00;61776.25;5108616;27;20200;-85
2023/03/08 01:31:21;;;;;;;14.53;9.60;;;;;;;-141.59;100.00;61776.25;5099640;28;20258;-89
2023/03/08 01:33:49;;;;;;;17.43;10.13;;;;;;;-141.59;100.00;61776.25;5107489;27;20224;-85
2023/03/08 01:36:18;;;;;;;16.13;10.40;;;;;;;-141.59;100.00;61776.25;5104773;28;20197;-86
2023/03/08 01:38:46;;;;;;;16.53;9.90;;;;;;;-141.59;100.00;61776.25;5107318;28;20200;-87
2023/03/08 01:41:16;;;;;;;15.60;9.87;;;;;;;-141.59;100.00;61776.25;5108273;28;20283;-86
2023/03/08 01:43:43;;;;;;;17.60;10.40;;;;;;;-141.59;100.00;61776.25;5105256;27;20197;-90
2023/03/08 01:46:28;;;;;;;17.87;10.33;;;;;;;-141.59;100.00;61776.25;5111700;28;20218;-90
2023/03/08 01:49:36;;;;;;;15.20;10.17;;;;;;;-141.59;100.00;61776.25;5055217;28;20194;-88
2023/03/08 01:52:12;;;;;;;19.97;10.40;;;;;;;-141.59;100.00;61776.25;5059566;28;20200;-84
2023/03/08 01:54:45;;;;;;;17.67;11.03;;;;;;;-141.59;100.00;61776.25;5070797;28;20226;-93
2023/03/08 01:57:18;;;;;;;18.03;10.03;;;;;;;-141.59;100.00;61776.25;5063629;28;20221;-94
2023/03/08 01:59:46;;;;;;;15.67;10.23;;;;;;;-141.59;100.00;61776.25;5061271;28;20255;-88
2023/03/08 02:02:18;;;;;;;15.50;9.93;;;;;;;-141.59;100.00;61776.25;5064824;28;20224;-86
2023/03/08 02:04:46;;;;;;;18.03;10.00;;;;;;;-141.59;100.00;61776.25;5064865;28;20209;-87
2023/03/08 02:07:14;;;;;;;13.93;9.67;;;;;;;-141.59;100.00;61776.25;5061680;28;20198;-89
2023/03/08 02:09:43;;;;;;;15.90;10.03;;;;;;;-141.59;100.00;61776.25;5063918;28;20197;-88
2023/03/08 02:12:13;;;;;;;15.20;9.90;;;;;;;-141.59;100.00;61776.25;5058972;28;20197;-88
2023/03/08 02:14:43;;;;;;;18.17;9.87;;;;;;;-141.59;100.00;61776.25;5061562;28;20237;-87
2023/03/08 02:17:11;;;;;;;15.83;9.73;;;;;;;-141.59;100.00;61776.25;5063059;28;20215;-87
2023/03/08 02:19:46;;;;;;;14.50;9.57;;;;;;;-141.59;100.00;61776.25;5070070;28;20304;-87
2023/03/08 02:22:15;;;;;;;15.93;9.73;;;;;;;-141.59;100.00;61776.25;5071265;28;20192;-86
2023/03/08 02:24:45;;;;;;;16.07;10.33;;;;;;;-141.59;100.00;61776.25;5064762;28;20225;-87
2023/03/08 02:27:17;;;;;;;17.67;10.23;;;;;;;-141.59;100.00;61776.25;5066544;28;20205;-88
2023/03/08 02:29:44;;;;;;;16.93;10.50;;;;;;;-141.59;100.00;61776.25;5067075;28;20216;-87
2023/03/08 02:32:12;;;;;;;18.83;11.37;;;;;;;-141.59;100.00;61776.25;5067068;28;20288;-86
2023/03/08 02:34:39;;;;;;;17.63;11.33;;;;;;;-141.59;100.00;61776.25;5067256;28;20223;-88
2023/03/08 02:37:07;;;;;;;16.40;10.57;;;;;;;-141.59;100.00;61776.25;5072115;28;20217;-88
2023/03/08 02:39:35;;;;;;;20.30;10.50;;;;;;;-141.59;100.00;61776.25;5063984;28;20225;-87
2023/03/08 02:42:04;;;;;;;17.67;10.37;;;;;;;-141.59;100.00;61776.25;5066716;28;20219;-86
2023/03/08 02:44:31;;;;;;;20.83;11.47;;;;;;;-141.59;100.00;61776.25;5060455;28;20220;-87
2023/03/08 02:46:58;;;;;;;22.67;12.07;;;;;;;-141.59;100.00;61776.25;5066985;28;20234;-85
2023/03/08 02:49:25;;;;;;;19.43;10.93;;;;;;;-141.59;100.00;61776.25;5069966;28;20197;-85
2023/03/08 02:51:52;;;;;;;22.43;11.27;;;;;;;-141.59;100.00;61776.25;5065166;28;20225;-85
2023/03/08 02:54:21;;;;;;;17.47;11.57;;;;;;;-141.59;100.00;61776.25;5062188;28;20217;-88
2023/03/08 02:56:48;;;;;;;20.17;11.10;;;;;;;-141.59;100.00;61776.25;5057780;28;20210;-86
2023/03/08 02:59:17;;;;;;;21.13;11.80;;;;;;;-141.59;100.00;61776.25;5059848;28;20208;-86
2023/03/08 03:01:46;;;;;;;25.43;11.90;;;;;;;-141.59;100.00;61776.25;5063390;28;20236;-89
2023/03/08 03:04:13;;;;;;;19.87;12.00;;;;;;;-141.59;100.00;61776.25;5062770;28;20201;-90
2023/03/08 03:06:40;;;;;;;16.70;10.70;;;;;;;-141.59;100.00;61776.25;5075275;28;20262;-88
2023/03/08 03:09:10;;;;;;;25.80;12.60;;;;;;;-141.59;100.00;61776.25;5065026;28;20330;-88
2023/03/08 03:11:37;;;;;;;22.83;11.33;;;;;;;-141.59;100.00;61776.25;5062792;28;20201;-88
2023/03/08 03:14:05;;;;;;;16.50;11.90;;;;;;;-141.59;100.00;61776.25;5064449;28;20217;-87
2023/03/08 03:16:39;;;;;;;21.47;11.77;;;;;;;-141.59;100.00;61776.25;5056802;28;20193;-87
2023/03/08 03:19:07;;;;;;;20.83;12.03;;;;;;;-141.59;100.00;61776.25;5061864;28;20205;-86
2023/03/08 03:21:34;;;;;;;18.57;11.80;;;;;;;-141.59;100.00;61776.25;5061547;28;20201;-88
2023/03/08 03:24:01;;;;;;;18.60;11.73;;;;;;;-141.59;100.00;61776.25;5062347;28;20205;-89
2023/03/08 03:26:37;;;;;;;20.97;12.03;;;;;;;-141.59;100.00;61776.25;5065626;28;20204;-89
2023/03/08 03:29:05;;;;;;;20.73;11.10;;;;;;;-141.59;100.00;61776.25;5056805;28;20288;-87
2023/03/08 03:31:36;;;;;;;17.30;11.23;;;;;;;-141.59;100.00;61776.25;5059963;28;20201;-89
2023/03/08 03:34:05;;;;;;;20.33;11.27;;;;;;;-141.59;100.00;61776.25;5073095;28;20200;-89
2023/03/08 03:36:33;;;;;;;19.67;12.23;;;;;;;-141.59;100.00;61776.25;5067500;28;20194;-89
2023/03/08 03:39:01;;;;;;;20.80;12.30;;;;;;;-141.59;100.00;61776.25;5057781;28;20298;-91
2023/03/08 03:41:30;;;;;;;18.63;11.57;;;;;;;-141.59;100.00;61776.25;5061524;28;20244;-94
2023/03/08 03:44:08;;;;;;;23.93;11.50;;;;;;;-141.59;100.00;61776.25;5063146;28;20196;-93
2023/03/08 03:46:35;;;;;;;19.27;11.57;;;;;;;-141.59;100.00;61776.25;5060412;28;20193;-89
2023/03/08 03:49:07;;;;;;;19.77;11.63;;;;;;;-141.59;100.00;61776.25;5074338;28;20208;-90
2023/03/08 03:51:38;;;;;;;19.20;11.43;;;;;;;-141.59;100.00;61776.25;5063836;28;20200;-89
2023/03/08 03:54:22;;;;;;;19.07;11.43;;;;;;;-141.59;100.00;61776.25;5060184;28;20229;-92
2023/03/08 03:56:49;;;;;;;21.13;12.43;;;;;;;-141.59;100.00;61776.25;5061359;28;20206;-88
2023/03/08 03:59:18;;;;;;;20.27;11.73;;;;;;;-141.59;100.00;61776.25;5062139;28;20205;-86
2023/03/08 04:01:45;;;;;;;17.63;11.43;;;;;;;-141.59;100.00;61776.25;5060956;28;20197;-88
2023/03/08 04:04:21;;;;;;;20.03;11.63;;;;;;;-141.59;100.00;61776.25;5065953;28;20195;-88
2023/03/08 04:06:49;;;;;;;22.13;12.33;;;;;;;-141.59;100.00;61776.25;5060955;28;20204;-88
2023/03/08 04:09:20;;;;;;;23.03;12.10;;;;;;;-141.59;100.00;61776.25;5066919;28;20205;-89
2023/03/08 04:11:55;;;;;;;17.90;11.13;;;;;;;-141.59;100.00;61776.25;5065143;28;20251;-91
2023/03/08 04:14:24;;;;;;;17.97;11.00;;;;;;;-141.59;100.00;61776.25;5082930;28;20234;-88
2023/03/08 04:16:53;;;;;;;20.23;11.80;;;;;;;-141.59;100.00;61776.25;5059641;28;20290;-88
2023/03/08 04:19:30;;;;;;;22.77;11.97;;;;;;;-141.59;100.00;61776.25;5062779;28;20197;-90
2023/03/08 04:22:02;;;;;;;20.70;12.23;;;;;;;-141.59;100.00;61776.25;5062418;28;20219;-90
2023/03/08 04:24:36;;;;;;;19.80;11.23;;;;;;;-141.59;100.00;61776.25;5062942;28;20202;-87
2023/03/08 04:27:09;;;;;;;20.47;11.57;;;;;;;-141.59;100.00;61776.25;5043240;28;20202;-87
2023/03/08 04:29:37;;;;;;;20.40;10.67;;;;;;;-141.59;100.00;61776.25;5059099;28;20205;-88
2023/03/08 04:32:05;;;;;;;19.93;11.37;;;;;;;-141.59;100.00;61776.25;5064728;28;20193;-87
2023/03/08 04:34:44;;;;;;;24.27;13.03;;;;;;;-141.59;100.00;61776.25;5069005;28;20216;-87
2023/03/08 04:37:14;;;;;;;24.70;11.93;;;;;;;-141.59;100.00;61776.25;5060830;28;20297;-85
2023/03/08 04:39:44;;;;;;;18.73;10.83;;;;;;;-141.59;100.00;61776.25;5066015;28;20201;-86
2023/03/08 04:42:11;;;;;;;22.20;12.17;;;;;;;-141.59;100.00;61776.25;5062632;28;20217;-84
2023/03/08 04:44:39;;;;;;;20.87;12.37;;;;;;;-141.59;100.00;61776.25;5067514;28;20200;-86
2023/03/08 04:47:07;;;;;;;23.67;12.07;;;;;;;-141.59;100.00;61776.25;5069011;28;20228;-86
2023/03/08 04:49:39;;;;;;;19.47;11.93;;;;;;;-141.59;100.00;61776.25;5079444;28;20188;-85
2023/03/08 04:52:09;;;;;;;20.73;12.47;;;;;;;-141.59;100.00;61776.25;5090363;28;20196;-86
2023/03/08 04:54:38;;;;;;;21.80;12.27;;;;;;;-141.59;100.00;61776.25;5084326;28;20242;-87
2023/03/08 04:57:17;;;;;;;21.77;11.77;;;;;;;-141.59;100.00;61776.25;5091598;28;20224;-89
2023/03/08 04:59:45;;;;;;;19.43;11.60;;;;;;;-141.59;100.00;61776.25;5090439;28;20222;-89
2023/03/08 05:02:13;;;;;;;21.60;11.80;;;;;;;-141.59;100.00;61776.25;5079025;28;20201;-91
2023/03/08 05:04:40;;;;;;;17.97;11.23;;;;;;;-141.59;100.00;61776.25;5093417;28;20196;-93
2023/03/08 05:07:09;;;;;;;24.70;13.27;;;;;;;-141.59;100.00;61776.25;5077178;28;20229;-89
2023/03/08 05:09:37;;;;;;;21.93;11.27;;;;;;;-141.59;100.00;61776.25;5085694;28;20251;-87
2023/03/08 05:12:04;;;;;;;22.87;12.63;;;;;;;-141.59;100.00;61776.25;5081295;28;20196;-88
2023/03/08 05:14:42;;;;;;;18.20;11.30;;;;;;;-141.59;100.00;61776.25;5089539;28;20300;-89
2023/03/08 05:17:09;;;;;;;23.33;13.10;;;;;;;-141.59;100.00;61776.25;5077920;28;20246;-89
2023/03/08 05:19:37;;;;;;;23.13;12.93;;;;;;;-141.59;100.00;61776.25;5077809;28;20212;-88
2023/03/08 05:22:05;;;;;;;20.67;11.73;;;;;;;-141.59;100.00;61776.25;5084819;28;20200;-84
2023/03/08 05:24:35;;;;;;;23.97;12.30;;;;;;;-141.59;100.00;61776.25;5079766;28;20201;-84
2023/03/08 05:27:07;;;;;;;21.67;12.83;;;;;;;-141.59;100.00;61776.25;5097950;28;20197;-86
2023/03/08 05:29:36;;;;;;;21.77;12.83;;;;;;;-141.59;100.00;61776.25;5077177;28;20204;-85
2023/03/08 05:32:05;;;;;;;25.43;12.77;;;;;;;-141.59;100.00;61776.25;5076048;28;20366;-87
2023/03/08 05:34:33;;;;;;;18.67;11.20;;;;;;;-141.59;100.00;61776.25;5085057;28;20197;-86
2023/03/08 05:37:02;;;;;;;20.47;12.23;;;;;;;-141.59;100.00;61776.25;5082163;28;20294;-88
2023/03/08 05:39:32;;;;;;;19.60;11.60;;;;;;;-141.59;100.00;61776.25;5089306;28;20216;-87
2023/03/08 05:42:06;;;;;;;20.73;12.40;;;;;;;-141.59;100.00;61776.25;5086760;28;20203;-87
2023/03/08 05:44:38;;;;;;;23.53;12.97;;;;;;;-141.59;100.00;61776.25;5093843;28;20200;-90
2023/03/08 05:47:07;;;;;;;23.40;12.77;;;;;;;-141.59;100.00;61776.25;5085078;28;20223;-89
2023/03/08 05:49:36;;;;;;;19.70;11.73;;;;;;;-141.59;100.00;61776.25;5090833;28;20197;-90
2023/03/08 05:52:05;;;;;;;21.43;12.60;;;;;;;-141.59;100.00;61776.25;5102312;28;20208;-86
2023/03/08 05:54:32;;;;;;;22.50;13.07;;;;;;;-141.59;100.00;61776.25;5100096;28;20197;-89
2023/03/08 05:57:05;;;;;;;23.07;12.27;;;;;;;-141.59;100.00;61776.25;5080487;28;20303;-90
2023/03/08 05:59:33;;;;;;;20.43;12.33;;;;;;;-141.59;100.00;61776.25;5087812;28;20243;-89
2023/03/08 06:02:03;;;;;;;21.93;12.30;;;;;;;-141.59;100.00;61776.25;5088791;28;20208;-91
2023/03/08 06:04:41;;;;;;;23.93;12.73;;;;;;;-141.59;100.00;61776.25;5081448;28;20204;-86
2023/03/08 06:07:10;;;;;;;20.97;12.50;;;;;;;-141.59;100.00;61776.25;5084308;28;20201;-86
2023/03/08 06:09:42;;;;;;;19.97;11.80;;;;;;;-141.59;100.00;61776.25;5080224;28;20229;-86
2023/03/08 06:12:15;;;;;;;21.37;12.67;;;;;;;-141.59;100.00;61776.25;5085954;28;20207;-86
2023/03/08 06:14:44;;;;;;;20.33;12.23;;;;;;;-141.59;100.00;61776.25;5079836;28;20290;-87
2023/03/08 06:17:13;;;;;;;21.80;11.87;;;;;;;-141.59;100.00;61776.25;5080237;28;20205;-87
2023/03/08 06:19:44;;;;;;;24.83;12.77;;;;;;;-141.59;100.00;61776.25;5094768;28;20223;-88
2023/03/08 06:22:12;;;;;;;25.70;13.00;;;;;;;-141.59;100.00;61776.25;5093397;28;20211;-89
2023/03/08 06:24:39;;;;;;;19.23;11.97;;;;;;;-141.59;100.00;61776.25;5090665;28;20227;-90
2023/03/08 06:27:08;;;;;;;21.90;11.67;;;;;;;-141.59;100.00;61776.25;5090208;28;20224;-86
2023/03/08 06:29:39;;;;;;;21.70;11.70;;;;;;;-141.59;100.00;61776.25;5102129;28;20227;-87
2023/03/08 06:32:07;;;;;;;20.80;11.33;;;;;;;-141.59;100.00;61776.25;5104077;28;20200;-86
2023/03/08 06:34:34;;;;;;;21.73;12.93;;;;;;;-141.59;100.00;61776.25;5097281;28;20193;-85
2023/03/08 06:37:01;;;;;;;21.70;12.23;;;;;;;-141.59;100.00;61776.25;5104005;27;20189;-86
2023/03/08 06:39:30;;;;;;;20.77;12.03;;;;;;;-141.59;100.00;61776.25;5097053;28;20225;-85
2023/03/08 06:42:01;;;;;;;19.67;11.47;;;;;;;-141.59;100.00;61776.25;5103246;28;20205;-85
2023/03/08 06:44:29;;;;;;;24.37;12.80;;;;;;;-141.59;100.00;61776.25;5115067;27;20197;-85
2023/03/08 06:46:58;;;;;;;21.53;12.63;;;;;;;-141.59;100.00;61776.25;5105380;27;20232;-87
2023/03/08 06:49:25;;;;;;;21.03;12.57;;;;;;;-141.59;100.00;61776.25;5103747;28;20223;-86
2023/03/08 06:51:54;;;;;;;24.37;12.90;;;;;;;-141.59;100.00;61776.25;5101774;27;20235;-86
2023/03/08 06:54:23;;;;;;;24.00;13.97;;;;;;;-141.59;100.00;61776.25;5102594;27;20212;-88
2023/03/08 06:56:50;;;;;;;27.93;14.97;;;;;;;-141.59;100.00;61776.25;5097731;27;20204;-86
2023/03/08 06:59:18;;;;;;;24.80;14.53;;;;;;;-141.59;100.00;61776.25;5097542;27;20301;-90
2023/03/08 07:01:46;;;;;;;25.70;13.73;;;;;;;-141.59;100.00;61776.25;5103427;28;20195;-86
2023/03/08 07:04:16;;;;;;;26.33;14.97;;;;;;;-141.59;100.00;61776.25;5102560;27;20220;-84
2023/03/08 07:06:44;;;;;;;22.07;13.50;;;;;;;-141.59;100.00;61776.25;5100080;28;20239;-87
2023/03/08 07:09:12;;;;;;;31.70;15.30;;;;;;;-141.59;100.00;61776.25;5107724;28;20208;-90
2023/03/08 07:11:38;;;;;;;23.97;11.97;;;;;;;-141.59;100.00;61776.25;5106224;27;20200;-88
2023/03/08 07:14:06;;;;;;;21.67;11.73;;;;;;;-141.59;100.00;61776.25;5106815;28;20224;-88
2023/03/08 07:16:33;;;;;;;25.97;12.57;;;;;;;-141.59;100.00;61776.25;5103962;28;20196;-88
2023/03/08 07:19:02;;;;;;;20.23;12.03;;;;;;;-141.59;100.00;61776.25;5098485;27;20235;-84
2023/03/08 07:21:30;;;;;;;21.50;11.70;;;;;;;-141.59;100.00;61776.25;5099108;27;20224;-88
2023/03/08 07:23:57;;;;;;;25.67;11.10;;;;;;;-141.59;100.00;61776.25;5102052;28;20208;-88
2023/03/08 07:26:24;;;;;;;22.53;12.43;;;;;;;-141.59;100.00;61776.25;5103417;27;20224;-88
2023/03/08 07:28:52;;;;;;;25.83;12.27;;;;;;;-141.59;100.00;61776.25;5098985;28;20204;-87
2023/03/08 07:31:19;;;;;;;20.90;12.50;;;;;;;-141.59;100.00;61776.25;5095139;28;20495;-86
2023/03/08 07:33:47;;;;;;;21.37;11.80;;;;;;;-141.59;100.00;61776.25;5095072;28;20201;-88
2023/03/08 07:36:13;;;;;;;21.17;11.53;;;;;;;-141.59;100.00;61776.25;5105147;28;20199;-86
2023/03/08 07:38:42;;;;;;;20.90;12.33;;;;;;;-141.59;100.00;61776.25;5098289;28;20216;-87
2023/03/08 07:41:09;;;;;;;22.07;13.07;;;;;;;-141.59;100.00;61776.25;5097380;28;20193;-85
2023/03/08 07:43:36;;;;;;;22.73;13.03;;;;;;;-141.59;100.00;61776.25;5104718;27;20201;-86
2023/03/08 07:46:15;;;;;;;23.57;13.33;;;;;;;-141.59;100.00;61776.25;5104369;28;20287;-87
2023/03/08 07:48:43;;;;;;;21.57;12.87;;;;;;;-141.59;100.00;61776.25;5091908;28;20232;-88
2023/03/08 07:51:12;;;;;;;18.03;11.03;;;;;;;-141.59;100.00;61776.25;5102942;27;20199;-87
2023/03/08 07:53:39;;;;;;;17.00;9.60;;;;;;;-141.59;100.00;61776.25;5094680;28;20216;-90
2023/03/08 07:56:09;;;;;;;16.77;9.77;;;;;;;-141.59;100.00;61776.25;5111695;27;20208;-86
2023/03/08 07:58:39;;;;;;;17.83;9.80;;;;;;;-141.59;100.00;61776.25;5108781;28;20254;-91
2023/03/08 08:01:13;;;;;;;21.93;12.97;;;;;;;-141.59;100.00;61776.25;5102237;27;20232;-92
2023/03/08 08:03:40;;;;;;;17.13;10.90;;;;;;;-141.59;100.00;61776.25;5103183;27;20461;-91
2023/03/08 08:06:09;;;;;;;21.20;12.10;;;;;;;-141.59;100.00;61776.25;5100897;28;20213;-89
2023/03/08 08:08:37;;;;;;;17.73;10.97;;;;;;;-141.59;100.00;61776.25;5106644;28;20208;-89
2023/03/08 08:11:16;;;;;;;19.73;12.50;;;;;;;-141.59;100.00;61776.25;5103619;28;20200;-90
2023/03/08 08:13:45;;;;;;;21.77;12.10;;;;;;;-141.59;100.00;61776.25;5107299;28;20251;-90
2023/03/08 08:16:13;;;;;;;20.50;12.87;;;;;;;-141.59;100.00;61776.25;5108356;28;20210;-87
2023/03/08 08:18:41;;;;;;;19.50;11.37;;;;;;;-141.59;100.00;61776.25;5103040;27;20223;-90
2023/03/08 08:21:10;;;;;;;20.33;11.87;;;;;;;-141.59;100.00;61776.25;5104862;27;20221;-85
2023/03/08 08:23:39;;;;;;;17.37;9.67;;;;;;;-141.59;100.00;61776.25;5101884;28;20273;-86
2023/03/08 08:26:08;;;;;;;10.90;6.93;;;;;;;-141.59;100.00;61776.25;5109820;28;20189;-87
2023/03/08 08:28:38;;;;;;;19.57;10.57;;;;;;;-141.59;100.00;61776.25;5105265;28;20300;-87
2023/03/08 08:31:08;;;;;;;18.93;12.30;;;;;;;-141.59;100.00;61776.25;5097043;28;20241;-85
2023/03/08 08:33:36;;;;;;;20.13;11.73;;;;;;;-141.59;100.00;61776.25;5077300;28;20204;-90
2023/03/08 08:36:05;;;;;;;19.53;11.13;;;;;;;-141.59;100.00;61776.25;5107373;28;20196;-90
2023/03/08 08:38:32;;;;;;;6.50;3.23;;;;;;;-141.59;100.00;61776.25;5120740;28;20208;-90
2023/03/08 08:41:00;;;;;;;4.43;1.93;;;;;;;-141.59;100.00;61776.25;5100096;28;20200;-91
2023/03/08 08:43:28;;;;;;;5.70;3.50;;;;;;;-141.59;100.00;61776.25;5103620;28;20206;-90
2023/03/08 08:45:58;;;;;;;6.50;3.67;;;;;;;-141.59;100.00;61776.25;5105979;28;20185;-91
2023/03/08 08:48:31;;;;;;;0.93;0.80;;;;;;;-141.59;100.00;61776.25;5099025;28;20322;-89
2023/03/08 08:50:59;;;;;;;8.07;4.67;;;;;;;-141.59;100.00;61776.25;5096538;28;20212;-91
2023/03/08 08:53:27;;;;;;;9.60;5.97;;;;;;;-141.59;100.00;61776.25;5092820;28;20201;-90
2023/03/08 08:55:54;;;;;;;1.47;1.20;;;;;;;-141.59;100.00;61776.25;5100123;28;20196;-89
2023/03/08 08:58:22;;;;;;;2.10;0.93;;;;;;;-141.59;100.00;61776.25;5092172;28;20209;-89
2023/03/08 09:00:50;;;;;;;1.27;1.00;;;;;;;-141.59;100.00;61776.25;5110553;27;20221;-89
2023/03/08 09:03:18;;;;;;;2.00;1.03;;;;;;;-141.59;100.00;61776.25;5105460;28;20205;-90
2023/03/08 09:05:46;;;;;;;2.00;0.90;;;;;;;-141.59;100.00;61776.25;5100504;28;20227;-89
2023/03/08 09:08:14;;;;;;;9.73;6.03;;;;;;;-141.59;100.00;61776.25;5108387;28;20192;-88
2023/03/08 09:10:41;;;;;;;15.73;11.13;;;;;;;-141.59;100.00;61776.25;5106349;28;20257;-90
2023/03/08 09:13:08;;;;;;;17.57;10.57;;;;;;;-141.59;100.00;61776.25;5109974;28;20206;-88
2023/03/08 09:15:36;;;;;;;11.93;7.77;;;;;;;-141.59;100.00;61776.25;5106110;28;20215;-88
2023/03/08 09:18:04;;;;;;;7.60;5.00;;;;;;;-141.59;100.00;61776.25;5101051;28;20204;-92
2023/03/08 09:20:33;;;;;;;2.27;1.00;;;;;;;-141.59;100.00;61776.25;5112681;28;20221;-88
2023/03/08 09:23:00;;;;;;;12.83;8.40;;;;;;;-141.59;100.00;61776.25;5101826;27;20258;-91
2023/03/08 09:25:28;;;;;;;15.70;8.93;;;;;;;-141.59;100.00;61776.25;5117037;27;20223;-88
2023/03/08 09:27:55;;;;;;;10.10;6.50;;;;;;;-141.59;100.00;61776.25;5104417;28;20200;-90
2023/03/08 09:30:23;;;;;;;4.87;3.40;;;;;;;-141.59;100.00;61776.25;5106152;28;20272;-89
2023/03/08 09:32:50;;;;;;;3.40;2.20;;;;;;;-141.59;100.00;61776.25;5104991;28;20204;-90
2023/03/08 09:35:17;;;;;;;8.90;5.30;;;;;;;-141.59;100.00;61776.25;5105561;28;20218;-85
2023/03/08 09:37:45;;;;;;;20.67;11.70;;;;;;;-141.59;100.00;61776.25;5099837;28;20201;-89
2023/03/08 09:40:20;;;;;;;19.30;11.70;;;;;;;-141.59;100.00;61776.25;5102654;27;20232;-89
2023/03/08 09:42:47;;;;;;;21.13;14.17;;;;;;;-141.59;100.00;61776.25;5120817;27;20200;-89
2023/03/08 09:45:25;;;;;;;20.43;12.13;;;;;;;-141.59;100.00;61776.25;5098830;28;20267;-92
2023/03/08 09:48:03;;;;;;;18.73;11.27;;;;;;;-141.59;100.00;61776.25;5109206;27;20229;-93
2023/03/08 09:50:40;;;;;;;18.87;12.73;;;;;;;-141.59;100.00;61776.25;5099854;28;20207;-90
2023/03/08 09:53:18;;;;;;;24.03;11.73;;;;;;;-141.59;100.00;61776.25;5108212;28;20258;-89
2023/03/08 09:55:50;;;;;;;19.53;11.93;;;;;;;-141.59;100.00;61776.25;5106982;28;20208;-87
2023/03/08 09:58:28;;;;;;;22.90;12.47;;;;;;;-141.59;100.00;61776.25;5101206;28;20201;-89
2023/03/08 10:01:05;;;;;;;20.07;11.63;;;;;;;-141.59;100.00;61776.25;5096808;28;20228;-90
2023/03/08 10:04:03;;;;;;;22.37;11.97;;;;;;;-141.59;100.00;61776.25;5107432;28;20200;-90
2023/03/08 10:06:35;;;;;;;20.00;12.57;;;;;;;-141.59;100.00;61776.25;5097175;28;20205;-89
2023/03/08 10:09:13;;;;;;;20.90;12.37;;;;;;;-141.59;100.00;61776.25;5100674;28;20204;-89
2023/03/08 10:11:47;;;;;;;21.33;12.60;;;;;;;-141.59;100.00;61776.25;5107289;28;20201;-91
2023/03/08 10:14:20;;;;;;;21.23;11.63;;;;;;;-141.59;100.00;61776.25;5101938;28;20254;-90
2023/03/08 10:16:52;;;;;;;21.03;12.70;;;;;;;-141.59;100.00;61776.25;5096851;28;20209;-91
2023/03/08 10:19:24;;;;;;;19.07;11.83;;;;;;;-141.59;100.00;61776.25;5104037;28;20217;-88
2023/03/08 10:21:54;;;;;;;21.77;13.30;;;;;;;-141.59;100.00;61776.25;5098749;28;20216;-91
2023/03/08 10:24:27;;;;;;;23.37;12.77;;;;;;;-141.59;100.00;61776.25;5095433;28;20277;-89
2023/03/08 10:26:55;;;;;;;22.67;13.10;;;;;;;-141.59;100.00;61776.25;5096251;28;20200;-92
2023/03/08 10:29:22;;;;;;;21.03;13.80;;;;;;;-141.59;100.00;61776.25;5103219;28;20329;-89
2023/03/08 10:31:49;;;;;;;22.70;13.40;;;;;;;-141.59;100.00;61776.25;5102539;28;20208;-93
2023/03/08 10:34:19;;;;;;;20.57;12.23;;;;;;;-141.59;100.00;61776.25;5093133;28;20204;-87
2023/03/08 10:36:51;;;;;;;20.43;12.50;;;;;;;-141.59;100.00;61776.25;5105354;28;20246;-91
2023/03/08 10:39:29;;;;;;;23.63;13.30;;;;;;;-141.59;100.00;61776.25;5100138;28;20231;-91
2023/03/08 10:41:59;;;;;;;22.93;12.77;;;;;;;-141.59;100.00;61776.25;5108725;28;20200;-88
2023/03/08 10:44:40;;;;;;;18.80;12.57;;;;;;;-141.59;100.00;61776.25;5093247;28;20229;-89
2023/03/08 10:47:21;;;;;;;23.00;12.23;;;;;;;-141.59;100.00;61776.25;5111406;27;20241;-89
2023/03/08 10:49:50;;;;;;;18.17;12.33;;;;;;;-141.59;100.00;61776.25;5099268;28;20200;-89
2023/03/08 10:52:25;;;;;;;21.73;12.23;;;;;;;-141.59;100.00;61776.25;5104990;28;20197;-93
2023/03/08 10:55:06;;;;;;;19.97;12.40;;;;;;;-141.59;100.00;61776.25;5104048;28;20203;-89
2023/03/08 10:57:33;;;;;;;20.83;13.17;;;;;;;-141.59;100.00;61776.25;5095128;28;20228;-91
2023/03/08 11:00:11;;;;;;;23.40;13.67;;;;;;;-141.59;100.00;61776.25;5098414;28;20222;-90
2023/03/08 11:02:38;;;;;;;22.20;12.80;;;;;;;-141.59;100.00;61776.25;5114044;27;20222;-91
2023/03/08 11:05:20;;;;;;;21.07;13.10;;;;;;;-141.59;100.00;61776.25;5098332;28;20219;-89
2023/03/08 11:07:52;;;;;;;22.43;13.13;;;;;;;-141.59;100.00;61776.25;5101403;28;20205;-89